Time;durP1;ratioP1;P1;durP2;ratioP2;P2;SDS_P1;SDS_P2;PMS_P1;PMS_P2;Temp;Humidity;BMP_temperature;BMP_pressure;BME280_temperature;BME280_humidity;BME280_pressure;Samples;Min_cycle;Max_cycle;Signal;HPM_P1;HPM_P2
2022/08/07 00:01:33;;;;;;;6.53;4.00;;;;;;;19.84;73.37;93265.63;2071089;69;20172;-76
2022/08/07 00:03:59;;;;;;;5.03;3.60;;;;;;;19.84;72.55;93265.63;2071028;69;20603;-75
2022/08/07 00:06:25;;;;;;;7.32;4.50;;;;;;;19.74;74.46;93262.38;2071570;69;20159;-75
2022/08/07 00:08:51;;;;;;;5.97;3.28;;;;;;;19.91;71.86;93261.56;2072407;69;20187;-75
2022/08/07 00:11:17;;;;;;;4.32;3.50;;;;;;;19.80;73.02;93260.50;2072646;69;20564;-76
2022/08/07 00:13:44;;;;;;;5.10;3.55;;;;;;;19.78;73.61;93256.81;2072266;69;20175;-76
2022/08/07 00:16:11;;;;;;;4.38;3.28;;;;;;;20.03;71.60;93256.28;2071921;69;20215;-75
2022/08/07 00:18:37;;;;;;;6.25;3.33;;;;;;;19.99;71.47;93253.28;2072158;69;20235;-75
2022/08/07 00:21:06;;;;;;;4.78;3.25;;;;;;;19.92;72.18;93250.88;2070937;69;20187;-73
2022/08/07 00:23:34;;;;;;;4.45;3.45;;;;;;;20.01;72.18;93250.50;2070159;69;20689;-73
2022/08/07 00:26:02;;;;;;;5.43;3.35;;;;;;;20.08;70.27;93250.72;2070961;69;20160;-73
2022/08/07 00:28:29;;;;;;;5.22;3.53;;;;;;;20.04;71.10;93243.47;2070922;69;20168;-73
2022/08/07 00:30:55;;;;;;;6.20;3.85;;;;;;;19.96;71.46;93251.75;2070758;69;20219;-74
2022/08/07 00:33:25;;;;;;;3.67;3.30;;;;;;;20.01;71.47;93249.75;2071066;69;20149;-74
2022/08/07 00:35:52;;;;;;;4.15;3.00;;;;;;;19.97;70.88;93244.63;2067577;69;20228;-74
2022/08/07 00:38:18;;;;;;;4.32;3.45;;;;;;;20.02;71.35;93239.78;2071281;69;20168;-73
2022/08/07 00:40:43;;;;;;;4.78;3.30;;;;;;;20.02;71.37;93237.69;2068072;69;20148;-73
2022/08/07 00:43:12;;;;;;;4.40;3.78;;;;;;;19.90;71.82;93242.97;2068002;69;20215;-73
2022/08/07 00:45:40;;;;;;;7.97;3.20;;;;;;;20.04;69.66;93242.72;2068049;69;20160;-73
2022/08/07 00:48:06;;;;;;;4.25;3.22;;;;;;;20.05;69.78;93233.50;2068090;69;20136;-73
2022/08/07 00:50:32;;;;;;;6.50;3.45;;;;;;;20.03;71.25;93222.00;2067961;69;20144;-74
2022/08/07 00:52:58;;;;;;;7.45;4.38;;;;;;;19.71;73.55;93218.03;2071340;69;20156;-73
2022/08/07 00:55:24;;;;;;;5.10;3.67;;;;;;;19.85;71.84;93214.94;2071318;69;20586;-74
2022/08/07 00:57:50;;;;;;;6.05;3.60;;;;;;;19.91;71.58;93215.88;2067963;69;20191;-74
2022/08/07 01:00:18;;;;;;;5.85;3.63;;;;;;;19.76;71.87;93211.78;2071583;69;20143;-75
2022/08/07 01:02:45;;;;;;;7.35;3.92;;;;;;;19.85;72.04;93209.94;2071432;69;20203;-74
2022/08/07 01:05:19;;;;;;;4.70;3.30;;;;;;;19.86;70.39;93207.81;2071779;69;20283;-74
2022/08/07 01:07:45;;;;;;;5.07;3.25;;;;;;;19.95;69.37;93210.28;2071807;69;20514;-74
2022/08/07 01:10:11;;;;;;;4.93;3.58;;;;;;;19.94;70.47;93205.25;2071624;69;20181;-74
2022/08/07 01:12:39;;;;;;;5.57;3.75;;;;;;;19.80;71.85;93200.50;2068022;69;20623;-74
2022/08/07 01:15:08;;;;;;;4.63;3.95;;;;;;;19.52;72.80;93197.38;2068041;69;20259;-74
2022/08/07 01:17:34;;;;;;;5.65;3.95;;;;;;;19.46;73.63;93197.13;2067896;69;20157;-74
2022/08/07 01:20:12;;;;;;;4.30;3.80;;;;;;;19.48;72.81;93196.50;2067909;69;20180;-74
2022/08/07 01:22:39;;;;;;;4.68;3.53;;;;;;;19.77;71.14;93196.09;2068642;69;20198;-74
2022/08/07 01:25:10;;;;;;;9.13;3.42;;;;;;;19.70;71.72;93194.44;2065201;69;20160;-74
2022/08/07 01:27:36;;;;;;;7.13;4.05;;;;;;;19.18;73.98;93193.97;2067928;69;20156;-74
2022/08/07 01:30:03;;;;;;;6.68;4.28;;;;;;;19.47;72.45;93198.63;2068083;69;20225;-74
2022/08/07 01:32:29;;;;;;;9.65;5.53;;;;;;;19.52;72.56;93188.78;2067798;69;20152;-74
2022/08/07 01:34:56;;;;;;;8.82;4.60;;;;;;;19.45;73.32;93198.53;2067956;69;20152;-73
2022/08/07 01:37:23;;;;;;;5.93;4.60;;;;;;;19.53;72.53;93198.09;2070982;69;20143;-74
2022/08/07 01:39:52;;;;;;;8.02;4.78;;;;;;;19.64;71.09;93190.63;2068063;69;20136;-74
2022/08/07 01:42:26;;;;;;;5.57;4.07;;;;;;;19.55;72.34;93187.47;2067886;69;20173;-74
2022/08/07 01:44:52;;;;;;;6.57;4.13;;;;;;;19.57;72.00;93183.22;2067997;69;20161;-73
2022/08/07 01:47:19;;;;;;;7.22;4.70;;;;;;;19.65;71.01;93183.53;2067651;69;20156;-73
2022/08/07 01:49:44;;;;;;;6.20;5.13;;;;;;;19.36;73.00;93182.50;2068015;69;20581;-73
2022/08/07 01:52:12;;;;;;;9.10;5.40;;;;;;;18.85;77.15;93174.94;2067981;69;20167;-73
2022/08/07 01:54:41;;;;;;;7.85;5.20;;;;;;;19.00;76.54;93191.19;2068140;69;20144;-72
2022/08/07 01:57:19;;;;;;;;;;;;;;;19.18;75.42;93184.69;2068487;69;20267;-73
2022/08/07 02:00:16;;;;;;;6.47;4.57;;;;;;;19.40;73.98;93173.34;2067879;69;20052;-72
2022/08/07 02:02:54;;;;;;;6.63;5.05;;;;;;;19.44;72.90;93174.22;2067878;69;20590;-72
2022/08/07 02:05:34;;;;;;;6.82;5.10;;;;;;;19.56;71.05;93168.19;2067707;69;20144;-73
2022/08/07 02:08:06;;;;;;;7.55;5.07;;;;;;;19.42;72.20;93167.69;2067780;69;20174;-72
2022/08/07 02:10:37;;;;;;;7.10;5.18;;;;;;;19.42;72.39;93170.56;2068093;69;20137;-72
2022/08/07 02:13:06;;;;;;;6.47;5.40;;;;;;;19.29;73.67;93173.00;2065070;69;20159;-73
2022/08/07 02:15:38;;;;;;;10.32;5.97;;;;;;;18.87;77.09;93177.13;2067702;69;20547;-73
2022/08/07 02:18:09;;;;;;;7.88;5.90;;;;;;;18.67;78.83;93179.91;2067705;69;20245;-73
2022/08/07 02:20:35;;;;;;;7.68;5.45;;;;;;;18.97;76.06;93172.53;2071293;69;20291;-74
2022/08/07 02:23:04;;;;;;;8.43;6.30;;;;;;;18.92;77.25;93170.19;2067993;69;20259;-74
2022/08/07 02:25:35;;;;;;;9.60;6.28;;;;;;;18.86;77.81;93170.69;2067967;69;20180;-73
2022/08/07 02:28:05;;;;;;;7.90;5.75;;;;;;;19.08;75.90;93172.91;2071717;69;20695;-74
2022/08/07 02:30:37;;;;;;;7.57;5.22;;;;;;;19.33;72.87;93172.38;2071568;69;20147;-74
2022/08/07 02:33:05;;;;;;;7.30;5.32;;;;;;;19.37;71.79;93171.81;2071445;69;20231;-71
2022/08/07 02:35:33;;;;;;;9.55;5.68;;;;;;;19.48;72.04;93173.66;2071515;69;20159;-74
2022/08/07 02:38:05;;;;;;;9.52;6.05;;;;;;;19.28;72.87;93180.06;2068155;69;20221;-74
2022/08/07 02:40:37;;;;;;;8.63;6.20;;;;;;;19.33;73.36;93174.50;2068121;69;20152;-73
2022/08/07 02:43:05;;;;;;;8.38;5.85;;;;;;;19.28;73.85;93176.50;2068109;69;20140;-74
2022/08/07 02:45:32;;;;;;;7.47;6.72;;;;;;;18.85;76.30;93177.78;2070957;69;20195;-74
2022/08/07 02:47:58;;;;;;;9.15;6.40;;;;;;;19.11;74.89;93174.47;2067634;69;20184;-74
2022/08/07 02:50:24;;;;;;;7.72;6.00;;;;;;;19.22;73.97;93182.00;2067640;69;20140;-74
2022/08/07 02:53:03;;;;;;;7.53;5.85;;;;;;;19.18;74.52;93174.00;2071123;69;20136;-74
2022/08/07 02:55:32;;;;;;;13.85;6.55;;;;;;;19.15;75.00;93174.59;2067723;69;20176;-75
2022/08/07 02:58:03;;;;;;;8.85;6.07;;;;;;;19.12;75.54;93175.91;2068113;69;20595;-75
2022/08/07 03:00:33;;;;;;;8.75;6.40;;;;;;;19.24;74.47;93164.94;2067903;69;20158;-75
2022/08/07 03:02:59;;;;;;;8.95;6.18;;;;;;;19.22;73.93;93162.00;2071281;69;20140;-74
2022/08/07 03:05:27;;;;;;;9.65;5.47;;;;;;;19.40;71.77;93162.66;2071249;69;20168;-74
2022/08/07 03:07:54;;;;;;;7.15;6.15;;;;;;;19.37;73.32;93160.38;2071424;69;20237;-74
2022/08/07 03:10:21;;;;;;;7.15;5.63;;;;;;;19.38;72.36;93159.75;2068074;69;20253;-75
2022/08/07 03:12:49;;;;;;;8.93;6.63;;;;;;;19.09;74.63;93163.69;2071306;69;20191;-75
2022/08/07 03:15:17;;;;;;;10.15;6.47;;;;;;;18.85;75.97;93165.66;2067968;69;20148;-75
2022/08/07 03:17:44;;;;;;;7.95;5.97;;;;;;;19.09;74.08;93160.09;2068068;69;20216;-74
2022/08/07 03:20:11;;;;;;;11.90;6.25;;;;;;;19.21;72.88;93154.84;2065009;69;20237;-74
2022/08/07 03:22:41;;;;;;;8.73;6.75;;;;;;;18.85;75.60;93160.66;2068087;69;20152;-74
2022/08/07 03:25:11;;;;;;;9.48;5.97;;;;;;;19.11;73.69;93160.19;2067956;69;20136;-74
2022/08/07 03:27:42;;;;;;;9.88;6.80;;;;;;;18.99;73.67;93166.16;2067943;69;20596;-74
2022/08/07 03:30:12;;;;;;;9.70;6.75;;;;;;;19.17;73.11;93157.56;2071223;69;20171;-75
2022/08/07 03:32:41;;;;;;;7.28;6.57;;;;;;;19.23;73.03;93157.75;2067731;69;20167;-75
2022/08/07 03:35:13;;;;;;;7.30;6.07;;;;;;;19.38;70.52;93161.84;2065201;69;20144;-75
2022/08/07 03:37:42;;;;;;;8.50;6.68;;;;;;;19.31;72.67;93160.91;2067849;69;20243;-74
2022/08/07 03:40:09;;;;;;;8.32;5.90;;;;;;;19.33;72.25;93160.25;2067961;69;20607;-75
2022/08/07 03:42:36;;;;;;;8.63;6.78;;;;;;;19.00;73.38;93167.63;2065158;69;20209;-75
2022/08/07 03:45:04;;;;;;;8.85;6.20;;;;;;;19.06;73.34;93176.44;2067817;69;20136;-75
2022/08/07 03:47:30;;;;;;;9.05;6.57;;;;;;;19.15;72.14;93166.03;2067674;69;20645;-75
2022/08/07 03:49:58;;;;;;;7.90;6.28;;;;;;;19.21;71.15;93171.97;2067860;69;20245;-74
2022/08/07 03:52:29;;;;;;;9.45;7.38;;;;;;;19.08;74.13;93172.91;2067824;69;20250;-75
2022/08/07 03:55:00;;;;;;;10.05;7.00;;;;;;;19.19;72.61;93164.03;2067818;69;20164;-74
2022/08/07 03:57:28;;;;;;;9.05;6.57;;;;;;;19.21;72.39;93161.28;2064985;69;20145;-75
2022/08/07 03:59:54;;;;;;;8.30;6.70;;;;;;;19.30;72.39;93162.31;2067795;69;20198;-75
2022/08/07 04:02:21;;;;;;;10.48;6.78;;;;;;;19.29;72.90;93158.00;2071048;69;20159;-75
2022/08/07 04:04:48;;;;;;;11.10;7.43;;;;;;;19.33;72.78;93165.94;2067799;69;20164;-75
2022/08/07 04:07:17;;;;;;;8.32;6.40;;;;;;;19.39;71.68;93161.19;2071177;69;20218;-74
2022/08/07 04:09:46;;;;;;;11.57;6.90;;;;;;;19.35;71.64;93158.22;2064999;69;20140;-75
2022/08/07 04:12:13;;;;;;;8.85;6.82;;;;;;;19.28;71.83;93156.50;2067709;69;20148;-75
2022/08/07 04:14:40;;;;;;;9.60;6.97;;;;;;;19.31;72.68;93149.50;2067723;69;20151;-75
2022/08/07 04:17:06;;;;;;;11.85;7.03;;;;;;;19.37;71.75;93155.41;2067574;69;20266;-75
2022/08/07 04:19:33;;;;;;;15.15;7.63;;;;;;;19.21;73.65;93155.56;2071086;69;20172;-75
2022/08/07 04:22:00;;;;;;;10.80;7.47;;;;;;;19.38;71.22;93159.00;2071119;69;20670;-75
2022/08/07 04:24:31;;;;;;;10.82;6.88;;;;;;;19.47;69.31;93155.03;2071192;69;20201;-75
2022/08/07 04:27:03;;;;;;;10.73;7.65;;;;;;;19.45;70.88;93154.97;2067741;69;20165;-75
2022/08/07 04:29:29;;;;;;;10.15;6.80;;;;;;;19.42;70.33;93156.28;2067680;69;20564;-74
2022/08/07 04:31:55;;;;;;;12.80;7.38;;;;;;;19.41;70.95;93164.13;2067629;69;20232;-75
2022/08/07 04:34:23;;;;;;;8.73;6.75;;;;;;;19.43;71.54;93158.50;2067709;69;20152;-75
2022/08/07 04:36:49;;;;;;;10.65;7.18;;;;;;;19.40;71.56;93159.09;2071083;69;20140;-75
2022/08/07 04:39:15;;;;;;;9.15;7.40;;;;;;;19.42;71.25;93159.13;2067777;69;20577;-75
2022/08/07 04:41:41;;;;;;;9.32;7.93;;;;;;;19.05;73.79;93167.13;2067777;69;20164;-75
2022/08/07 04:44:08;;;;;;;12.27;7.82;;;;;;;18.82;75.81;93167.69;2067628;69;20140;-74
2022/08/07 04:46:57;;;;;;;11.52;7.90;;;;;;;18.75;76.10;93171.69;2067625;69;20483;-75
2022/08/07 04:49:47;;;;;;;13.48;8.35;;;;;;;18.31;78.76;93168.53;2067715;69;20251;-75
2022/08/07 04:52:31;;;;;;;9.30;7.80;;;;;;;18.69;75.91;93172.22;2067694;69;20195;-75
2022/08/07 04:55:19;;;;;;;9.93;7.72;;;;;;;19.00;74.27;93176.91;2067667;69;20176;-75
2022/08/07 04:58:08;;;;;;;10.25;7.03;;;;;;;19.19;72.43;93169.75;2067661;69;20244;-74
2022/08/07 05:00:52;;;;;;;9.45;6.85;;;;;;;19.24;72.75;93167.78;2067792;69;20227;-74
2022/08/07 05:03:21;;;;;;;11.52;8.75;;;;;;;18.75;76.54;93168.84;2068188;69;20152;-74
2022/08/07 05:06:09;;;;;;;12.05;8.75;;;;;;;18.99;74.43;93171.88;2067942;69;20160;-74
2022/08/07 05:08:45;;;;;;;16.52;11.45;;;;;;;19.11;74.14;93166.63;2067731;69;20152;-74
2022/08/07 05:11:18;;;;;;;16.80;11.05;;;;;;;19.18;72.67;93171.16;2067687;69;20164;-74
2022/08/07 05:13:54;;;;;;;14.07;8.32;;;;;;;19.23;72.88;93167.06;2067590;69;20473;-74
2022/08/07 05:16:21;;;;;;;17.77;9.20;;;;;;;19.28;72.53;93170.78;2067453;69;20160;-74
2022/08/07 05:18:57;;;;;;;45.90;27.85;;;;;;;19.36;72.19;93176.06;2064847;69;20151;-74
2022/08/07 05:21:26;;;;;;;21.48;12.25;;;;;;;19.40;71.92;93165.53;2067672;69;20168;-74
2022/08/07 05:24:02;;;;;;;105.47;47.83;;;;;;;19.45;71.73;93174.97;2068347;69;20151;-74
2022/08/07 05:26:31;;;;;;;18.10;10.15;;;;;;;19.43;73.75;93175.63;2069086;69;20263;-74
2022/08/07 05:29:06;;;;;;;21.83;11.30;;;;;;;19.51;70.89;93178.00;2065233;69;20176;-74
2022/08/07 05:31:37;;;;;;;10.55;7.32;;;;;;;19.40;70.14;93181.91;2064675;69;20152;-74
2022/08/07 05:34:08;;;;;;;14.27;8.55;;;;;;;19.19;72.50;93184.03;2067616;69;20150;-73
2022/08/07 05:36:37;;;;;;;11.82;8.02;;;;;;;19.36;72.14;93182.50;2067557;69;20225;-74
2022/08/07 05:39:07;;;;;;;13.68;8.88;;;;;;;19.08;73.84;93178.63;2064825;69;20152;-73
2022/08/07 05:41:33;;;;;;;11.77;7.85;;;;;;;19.41;70.76;93172.69;2064802;69;20152;-73
2022/08/07 05:44:00;;;;;;;13.13;8.18;;;;;;;19.40;71.81;93181.91;2067591;69;20155;-74
2022/08/07 05:46:26;;;;;;;14.73;8.50;;;;;;;19.09;74.59;93188.63;2067416;69;20148;-74
2022/08/07 05:48:53;;;;;;;13.82;9.40;;;;;;;18.74;76.71;93188.09;2064745;69;20151;-73
2022/08/07 05:51:21;;;;;;;13.32;8.55;;;;;;;18.95;75.64;93183.13;2064766;69;20544;-74
2022/08/07 05:53:47;;;;;;;12.77;7.78;;;;;;;19.09;72.28;93185.78;2067606;69;20153;-74
2022/08/07 05:56:15;;;;;;;13.30;9.10;;;;;;;18.92;75.64;93185.19;2062040;69;20198;-74
2022/08/07 05:58:46;;;;;;;16.77;10.02;;;;;;;18.61;77.75;93191.81;2068054;69;20183;-74
2022/08/07 06:01:14;;;;;;;12.65;9.02;;;;;;;18.96;75.49;93193.88;2063665;69;20255;-74
2022/08/07 06:03:49;;;;;;;13.52;10.07;;;;;;;19.14;75.44;93193.09;2063816;69;20561;-73
2022/08/07 06:06:16;;;;;;;13.23;9.23;;;;;;;19.25;73.70;93201.38;2064108;69;20140;-73
2022/08/07 06:08:45;;;;;;;13.02;8.73;;;;;;;19.44;72.90;93193.50;2067174;69;20176;-73
2022/08/07 06:11:12;;;;;;;13.77;10.02;;;;;;;19.34;73.36;93179.59;2067785;69;20691;-73
2022/08/07 06:13:39;;;;;;;17.20;12.52;;;;;;;19.52;72.72;93180.22;2064316;69;20152;-73
2022/08/07 06:16:08;;;;;;;30.85;19.83;;;;;;;19.50;73.63;93176.56;2064254;69;20140;-73
2022/08/07 06:18:36;;;;;;;22.15;11.65;;;;;;;19.65;70.31;93189.22;2067936;69;20716;-73
2022/08/07 06:21:03;;;;;;;16.33;9.77;;;;;;;19.59;73.29;93184.03;2068263;69;20176;-72
2022/08/07 06:23:31;;;;;;;15.20;9.60;;;;;;;19.54;73.79;93182.41;2066992;69;20143;-72
2022/08/07 06:25:58;;;;;;;14.23;9.95;;;;;;;19.55;73.92;93184.59;2070236;69;20239;-72
2022/08/07 06:28:25;;;;;;;13.35;9.73;;;;;;;19.70;72.72;93182.25;2071369;69;20549;-72
2022/08/07 06:30:51;;;;;;;15.85;10.52;;;;;;;19.38;75.22;93182.59;2067748;69;20160;-73
2022/08/07 06:33:18;;;;;;;23.25;12.65;;;;;;;19.78;72.33;93177.56;2067926;69;20156;-72
2022/08/07 06:35:47;;;;;;;15.23;9.90;;;;;;;20.03;71.67;93179.13;2071466;69;20159;-72
2022/08/07 06:38:13;;;;;;;14.68;9.07;;;;;;;20.05;70.71;93173.47;2065142;69;20594;-73
2022/08/07 06:40:44;;;;;;;16.45;9.00;;;;;;;19.94;71.91;93182.38;2069162;69;20227;-74
2022/08/07 06:43:11;;;;;;;13.43;9.55;;;;;;;19.73;74.40;93175.25;2073231;69;20148;-74
2022/08/07 06:45:47;;;;;;;11.88;9.13;;;;;;;20.28;70.95;93171.34;2069807;69;20229;-73
2022/08/07 06:48:13;;;;;;;13.02;8.73;;;;;;;20.26;71.30;93169.16;2069696;69;20343;-74
2022/08/07 06:50:44;;;;;;;15.35;9.32;;;;;;;20.23;72.86;93173.34;2071332;69;20146;-73
2022/08/07 06:53:13;;;;;;;18.77;11.70;;;;;;;20.48;70.90;93166.31;2074759;69;20160;-73
2022/08/07 06:55:39;;;;;;;15.75;8.30;;;;;;;20.54;71.39;93162.91;2071189;69;20583;-73
2022/08/07 06:58:09;;;;;;;14.35;7.68;;;;;;;20.69;68.96;93166.94;2071243;69;20143;-73
2022/08/07 07:00:43;;;;;;;13.10;7.40;;;;;;;20.71;68.12;93166.97;2071263;69;20172;-74
2022/08/07 07:03:11;;;;;;;8.25;7.00;;;;;;;20.96;68.98;93159.88;2074446;69;20149;-72
2022/08/07 07:05:40;;;;;;;10.18;6.93;;;;;;;21.03;66.99;93161.53;2073840;69;20219;-72
2022/08/07 07:08:07;;;;;;;10.27;6.53;;;;;;;20.97;66.91;93147.03;2071277;69;20132;-74
2022/08/07 07:10:34;;;;;;;10.77;6.70;;;;;;;21.02;67.02;93152.19;2067913;69;20147;-73
2022/08/07 07:13:05;;;;;;;9.15;6.60;;;;;;;20.60;69.75;93148.78;2067934;69;20188;-73
2022/08/07 07:15:35;;;;;;;9.52;6.93;;;;;;;21.29;67.51;93145.09;2071231;69;20167;-72
2022/08/07 07:18:27;;;;;;;8.40;6.43;;;;;;;21.62;67.57;93159.59;2071341;69;20143;-72
2022/08/07 07:21:04;;;;;;;10.05;6.50;;;;;;;21.35;66.81;93150.31;2072198;69;20148;-73
2022/08/07 07:23:31;;;;;;;11.07;6.80;;;;;;;21.73;66.25;93144.88;2073153;69;20599;-73
2022/08/07 07:26:01;;;;;;;12.50;8.60;;;;;;;21.95;68.56;93146.88;2074554;69;20551;-72
2022/08/07 07:28:31;;;;;;;7.80;5.10;;;;;;;21.73;65.62;93141.28;2074625;69;20172;-74
2022/08/07 07:31:05;;;;;;;32.35;18.00;;;;;;;22.18;66.14;93148.19;2071528;69;20204;-72
2022/08/07 07:33:33;;;;;;;10.93;5.55;;;;;;;22.47;66.18;93140.97;2071424;69;20167;-74
2022/08/07 07:36:00;;;;;;;5.47;3.85;;;;;;;22.52;65.04;93139.66;2071227;69;20555;-72
2022/08/07 07:38:26;;;;;;;5.60;4.05;;;;;;;22.43;64.24;93133.00;2071175;69;20164;-74
2022/08/07 07:40:57;;;;;;;5.30;3.25;;;;;;;22.83;64.45;93143.97;2071246;69;20176;-75
2022/08/07 07:43:26;;;;;;;5.60;3.30;;;;;;;23.00;63.63;93145.81;2071166;69;20162;-72
2022/08/07 07:45:52;;;;;;;6.20;2.67;;;;;;;23.12;62.39;93145.31;2071036;69;20247;-73
2022/08/07 07:48:30;;;;;;;6.70;2.95;;;;;;;23.03;62.49;93146.56;2067803;69;20136;-73
2022/08/07 07:50:58;;;;;;;3.67;2.80;;;;;;;22.93;62.36;93147.06;2071296;69;20159;-74
2022/08/07 07:53:25;;;;;;;4.10;3.42;;;;;;;22.89;61.26;93149.84;2071265;69;20141;-72
2022/08/07 07:55:53;;;;;;;3.70;2.97;;;;;;;22.79;60.78;93141.72;2071166;69;20231;-73
2022/08/07 07:58:20;;;;;;;8.38;4.65;;;;;;;23.08;60.46;93145.97;2071200;69;20135;-74
2022/08/07 08:00:48;;;;;;;3.97;2.50;;;;;;;23.05;60.72;93138.75;2067903;69;20163;-72
2022/08/07 08:03:18;;;;;;;4.00;3.00;;;;;;;23.02;61.18;93142.25;2071078;69;20239;-72
2022/08/07 08:05:44;;;;;;;5.22;3.97;;;;;;;23.17;61.68;93137.53;2071310;69;20498;-73
2022/08/07 08:08:11;;;;;;;4.68;3.55;;;;;;;23.34;60.40;93139.31;2071862;69;20140;-73
2022/08/07 08:10:38;;;;;;;4.45;3.65;;;;;;;23.37;62.12;93132.22;2071756;69;20148;-73
2022/08/07 08:13:06;;;;;;;4.57;3.53;;;;;;;23.48;60.39;93133.84;2072968;69;20579;-74
2022/08/07 08:15:36;;;;;;;4.70;3.67;;;;;;;23.44;61.11;93128.03;2072967;69;20172;-74
2022/08/07 08:18:04;;;;;;;3.97;3.30;;;;;;;23.54;60.71;93130.38;2071919;69;20718;-74
2022/08/07 08:20:31;;;;;;;4.20;3.30;;;;;;;23.69;60.74;93125.66;2072798;69;20182;-74
2022/08/07 08:28:34;;;;;;;3.63;2.60;;;;;;;24.12;58.88;93118.50;2071686;69;20231;-75
2022/08/07 08:31:03;;;;;;;3.78;3.25;;;;;;;24.21;58.60;93114.34;2074113;69;20246;-76
2022/08/07 08:33:33;;;;;;;6.32;3.20;;;;;;;24.48;58.92;93118.41;2074392;69;20138;-76
2022/08/07 08:36:01;;;;;;;2.70;2.50;;;;;;;25.05;57.33;93119.22;2074494;69;20143;-76
2022/08/07 08:38:32;;;;;;;3.13;2.65;;;;;;;25.01;58.19;93122.03;2074424;69;20168;-76
2022/08/07 08:41:10;;;;;;;4.07;2.63;;;;;;;25.13;55.49;93123.66;2074169;69;20223;-75
2022/08/07 08:44:00;;;;;;;3.28;2.60;;;;;;;25.11;55.50;93112.84;2073599;69;20192;-75
2022/08/07 08:47:01;;;;;;;3.38;3.03;;;;;;;26.24;54.82;93109.75;2070246;69;20140;-74
2022/08/07 08:49:53;;;;;;;2.65;2.40;;;;;;;26.21;54.59;93116.97;2069786;69;20264;-76
2022/08/07 08:52:27;;;;;;;2.53;2.33;;;;;;;26.36;51.80;93112.75;2066807;69;20846;-76
2022/08/07 08:55:08;;;;;;;2.47;2.17;;;;;;;26.89;50.43;93108.81;2073979;69;20152;-76
2022/08/07 08:57:41;;;;;;;2.50;2.30;;;;;;;26.88;50.84;93107.38;2071011;69;20179;-75
2022/08/07 09:00:10;;;;;;;2.47;2.10;;;;;;;27.75;49.23;93107.81;2075095;69;20632;-75
2022/08/07 09:03:11;;;;;;;2.85;2.53;;;;;;;28.19;50.18;93112.25;2074890;69;20156;-76
2022/08/07 09:05:50;;;;;;;3.13;2.40;;;;;;;27.64;48.56;93108.47;2074929;69;20243;-75
2022/08/07 09:08:42;;;;;;;3.00;2.00;;;;;;;28.38;47.17;93110.09;2071491;69;20171;-77
2022/08/07 09:11:23;;;;;;;2.15;2.03;;;;;;;29.07;46.39;93104.28;2074803;69;20140;-75
2022/08/07 09:14:19;;;;;;;2.03;1.92;;;;;;;29.59;44.29;93099.06;2075134;69;20584;-75
2022/08/07 09:17:09;;;;;;;1.80;1.70;;;;;;;29.87;43.48;93101.09;2074853;69;20159;-76
2022/08/07 09:19:56;;;;;;;4.03;2.00;;;;;;;29.42;43.70;93100.56;2074969;69;20144;-76
2022/08/07 09:22:37;;;;;;;1.70;1.60;;;;;;;28.49;43.42;93096.34;2071543;69;20178;-76
2022/08/07 09:25:10;;;;;;;1.75;1.63;;;;;;;29.35;44.60;93097.66;2074845;69;20231;-76
2022/08/07 09:28:06;;;;;;;2.10;1.60;;;;;;;30.25;43.75;93090.75;2074837;69;20560;-76
2022/08/07 09:31:07;;;;;;;1.90;1.52;;;;;;;30.39;43.90;93084.81;2073059;69;20312;-78
2022/08/07 09:34:09;;;;;;;1.67;1.58;;;;;;;30.24;40.72;93090.03;2069418;69;20175;-75
2022/08/07 09:36:40;;;;;;;2.40;1.80;;;;;;;30.16;41.02;93089.34;2074918;69;20534;-76
2022/08/07 09:39:15;;;;;;;1.90;1.77;;;;;;;29.91;42.04;93091.63;2074927;69;20363;-74
2022/08/07 09:41:52;;;;;;;1.40;1.30;;;;;;;29.29;41.00;93086.09;2074986;69;20144;-76
2022/08/07 09:44:57;;;;;;;1.50;1.40;;;;;;;30.43;40.56;93084.78;2074948;69;20143;-75
2022/08/07 09:47:54;;;;;;;1.40;1.30;;;;;;;30.57;41.28;93083.97;2069084;69;20151;-76
2022/08/07 09:50:49;;;;;;;1.40;1.30;;;;;;;30.91;39.37;93079.31;2071509;69;20318;-76
2022/08/07 09:53:18;;;;;;;1.10;1.10;;;;;;;31.11;38.84;93079.09;2074859;69;20152;-76
2022/08/07 09:56:00;;;;;;;1.40;1.30;;;;;;;31.42;40.38;93076.59;2074837;69;20132;-76
2022/08/07 09:58:50;;;;;;;1.40;1.30;;;;;;;31.55;37.32;93072.06;2074817;69;20144;-74
2022/08/07 10:01:56;;;;;;;1.30;1.20;;;;;;;31.20;37.56;93065.91;2074781;69;20148;-75
2022/08/07 10:04:50;;;;;;;1.45;1.35;;;;;;;32.21;38.83;93059.56;2074614;69;20277;-76
2022/08/07 10:07:33;;;;;;;1.55;1.45;;;;;;;31.21;37.19;93060.84;2074773;69;20560;-77
2022/08/07 10:10:05;;;;;;;1.60;1.50;;;;;;;31.61;35.10;93063.28;2074702;69;20164;-76
2022/08/07 10:12:45;;;;;;;1.63;1.52;;;;;;;31.86;36.05;93057.16;2074882;69;20660;-76
2022/08/07 10:15:33;;;;;;;2.30;1.80;;;;;;;32.72;36.32;93055.88;2074900;69;20231;-77
2022/08/07 10:18:27;;;;;;;1.55;1.40;;;;;;;32.08;33.55;93059.03;2074756;69;20197;-76
2022/08/07 10:21:21;;;;;;;2.30;1.50;;;;;;;31.99;34.88;93051.91;2066803;69;20164;-76
2022/08/07 10:24:17;;;;;;;1.55;1.45;;;;;;;31.09;36.99;93044.25;2074879;69;20183;-76
2022/08/07 10:27:11;;;;;;;1.80;1.20;;;;;;;32.69;36.43;93034.06;2074711;69;20148;-77
2022/08/07 10:30:21;;;;;;;1.45;1.35;;;;;;;33.08;35.05;93031.16;2074813;69;20217;-77
2022/08/07 10:33:21;;;;;;;1.50;1.40;;;;;;;33.40;32.67;93032.72;2060480;69;20161;-76
2022/08/07 10:36:02;;;;;;;1.70;1.60;;;;;;;33.04;33.45;93017.41;2074826;69;20235;-77
2022/08/07 10:38:56;;;;;;;1.40;1.30;;;;;;;34.17;32.28;93018.72;2074773;69;20193;-77
2022/08/07 10:41:39;;;;;;;1.67;1.55;;;;;;;33.72;31.93;93018.97;2071397;69;20219;-77
2022/08/07 10:44:46;;;;;;;1.60;1.50;;;;;;;33.69;32.74;93014.66;2074740;69;20147;-77
2022/08/07 10:47:24;;;;;;;1.33;1.23;;;;;;;35.30;32.21;93014.41;2074855;69;20201;-77
2022/08/07 10:50:02;;;;;;;1.50;1.40;;;;;;;36.01;30.42;93010.94;2074825;69;20151;-77
2022/08/07 10:52:37;;;;;;;1.30;1.20;;;;;;;36.30;29.65;93014.41;2071578;69;20154;-78
2022/08/07 10:55:13;;;;;;;1.50;1.40;;;;;;;34.81;30.86;93001.06;2074700;69;20538;-76
2022/08/07 10:58:46;;;;;;;2.25;1.13;;;;;;;36.96;28.72;93007.16;2071454;69;20151;-75
2022/08/07 11:01:18;;;;;;;2.97;1.40;;;;;;;36.62;27.54;93003.16;2055084;69;20173;-76
2022/08/07 11:04:08;;;;;;;1.27;1.17;;;;;;;38.50;27.09;93014.00;2073326;69;20168;-75
2022/08/07 11:06:46;;;;;;;2.08;1.33;;;;;;;40.76;24.28;93009.13;2071316;69;20530;-78
2022/08/07 11:09:17;;;;;;;1.10;1.00;;;;;;;42.99;21.96;93003.91;2071257;69;20236;-77
2022/08/07 11:11:52;;;;;;;1.20;1.05;;;;;;;40.98;22.60;93004.38;2071446;69;20510;-77
2022/08/07 11:14:41;;;;;;;4.13;1.08;;;;;;;39.46;24.70;93001.16;2071390;69;20155;-77
2022/08/07 11:17:17;;;;;;;1.17;0.95;;;;;;;40.72;23.23;93000.47;2067291;69;20133;-76
2022/08/07 11:19:46;;;;;;;1.00;1.00;;;;;;;41.30;22.26;92996.78;2071261;69;20132;-75
2022/08/07 11:22:26;;;;;;;1.15;1.10;;;;;;;43.75;20.50;93003.09;2071117;69;20259;-77
2022/08/07 11:25:16;;;;;;;1.10;1.00;;;;;;;45.79;19.57;92995.81;2071262;69;20618;-77
2022/08/07 11:27:56;;;;;;;0.85;0.85;;;;;;;44.16;19.31;92994.66;2071457;69;20182;-77
2022/08/07 11:30:27;;;;;;;1.30;1.20;;;;;;;46.24;18.32;92986.72;2071132;69;20179;-76
2022/08/07 11:33:05;;;;;;;1.23;0.90;;;;;;;47.34;17.27;92993.53;2071182;69;20679;-77
2022/08/07 11:35:53;;;;;;;1.10;1.00;;;;;;;46.26;16.36;92995.47;2071310;69;20645;-76
2022/08/07 11:38:45;;;;;;;1.88;0.90;;;;;;;47.78;17.23;92973.78;2071121;69;20518;-78
2022/08/07 11:41:10;;;;;;;;;;;;;;;46.55;17.61;92979.97;2064682;69;20497;-77
2022/08/07 11:43:50;;;;;;;1.85;1.10;;;;;;;48.05;16.82;92981.38;2071143;69;20436;-75
2022/08/07 11:46:45;;;;;;;0.80;0.80;;;;;;;47.96;15.89;92974.63;2071215;69;20180;-77
2022/08/07 11:49:25;;;;;;;1.27;1.00;;;;;;;48.53;15.89;92976.06;2071053;69;20483;-76
2022/08/07 11:52:29;;;;;;;1.67;0.90;;;;;;;49.25;16.30;92968.63;2071204;69;20140;-77
2022/08/07 11:55:13;;;;;;;0.75;0.75;;;;;;;47.78;15.75;92962.53;2071048;69;20138;-75
2022/08/07 11:57:48;;;;;;;1.08;0.98;;;;;;;48.79;15.69;92958.97;2071043;69;20148;-76
2022/08/07 12:00:19;;;;;;;0.75;0.75;;;;;;;48.58;15.03;92953.97;2070982;69;20229;-77
2022/08/07 12:03:09;;;;;;;0.80;0.80;;;;;;;49.36;15.09;92953.53;2070850;69;20590;-76
2022/08/07 12:06:10;;;;;;;2.17;0.70;;;;;;;49.89;14.71;92958.00;2071002;69;20159;-77
2022/08/07 12:08:51;;;;;;;2.13;0.82;;;;;;;48.80;14.90;92947.72;2071007;69;20492;-79